Terminal Aerodrome Forecast
Issued by NWS Medford, OR

Home | Current Version | Previous Version | Text Only | Print | Product List | Glossary On
Versions: 1 2 3 4 5 6 7 8 9 10 11 12 13 14 15 16 17 18
665
FTUS46 KMFR 082339
TAFMFR
TAF
KMFR 082339Z 0900/0924 VRB03KT P6SM VCSH SCT035 OVC060
     FM090900 VRB02KT 3SM BR SCT005 OVC012
     FM091200 VRB03KT 5SM -SHRA BR OVC005
     FM092000 23005KT P6SM -SHRA BKN025 OVC040=

USA.gov is the U.S. government's official web portal to all federal, state and local government web resources and services.